YM Uniformity — BLHQ — position and weather

sailwx.info

Track history (hours):
 
Tides and Currents Weather Stations Pressure Air Temp Water Temp Dewpoint Dewpoint Depression Visibility Wind Speed Wind Dir Waves Ship Positions

YM Uniformity

Last reported at 2017-Sep-24 10:33 UTC. Time now 2017-Sep-25 11:33 UTC.
Position N 26°27' W 079°28'.

Length 333 m; draft 13.3 m.

Type: Ship (hazmat cat D). MMSI: 416468000.

Date/timePositionNaut miles runAvg speedWind from/ knotsBaromVisibWave heightAir tempDewpointWater temp
2017-Sep-24 10:33N 26°27' W 079°28'123.1
2017-Sep-24 10:30N 26°26' W 079°28'1123.3
2017-Sep-24 10:00N 26°14' W 079°29'1223.5
2017-Sep-24 09:30N 26°03' W 079°30'1223.9
2017-Sep-24 09:00N 25°51' W 079°31'1224.1
2017-Sep-24 08:30N 25°39' W 079°33'1223.6
2017-Sep-24 08:00N 25°27' W 079°34'  
2017-Sep-15 11:22N 24°08' W 116°32'720.4
2017-Sep-15 11:00N 24°14' W 116°37'  
Track history (hours):
 
Tides and Currents Weather Stations Pressure Air Temp Water Temp Dewpoint Dewpoint Depression Visibility Wind Speed Wind Dir Waves Ship Positions

YM Uniformity

Last reported at 2017-Sep-24 10:33 UTC. Time now 2017-Sep-25 11:33 UTC.
Position N 26°27' W 079°28'.

Length 333 m; draft 13.3 m.

Type: Ship (hazmat cat D). MMSI: 416468000.

Date/timePositionNaut miles runAvg speedWind from/ knotsBaromVisibWave heightAir tempDewpointWater temp
2017-Sep-24 10:33N 26°27' W 079°28'123.1
2017-Sep-24 10:30N 26°26' W 079°28'1123.3
2017-Sep-24 10:00N 26°14' W 079°29'1223.5
2017-Sep-24 09:30N 26°03' W 079°30'1223.9
2017-Sep-24 09:00N 25°51' W 079°31'1224.1
2017-Sep-24 08:30N 25°39' W 079°33'1223.6
2017-Sep-24 08:00N 25°27' W 079°34'  
2017-Sep-15 11:22N 24°08' W 116°32'720.4
2017-Sep-15 11:00N 24°14' W 116°37'  

Dump ship's entire track history